sensor_id;sensor_type;location;lat;lon;timestamp;P1;durP1;ratioP1;P2;durP2;ratioP2
11086;SDS011;5597;47.588;9.642;2022-10-04T00:03:36;6.53;;;5.87;;
11086;SDS011;5597;47.588;9.642;2022-10-04T00:06:26;6.57;;;5.80;;
11086;SDS011;5597;47.588;9.642;2022-10-04T00:08:54;6.53;;;5.93;;
11086;SDS011;5597;47.588;9.642;2022-10-04T00:11:32;9.13;;;6.00;;
11086;SDS011;5597;47.588;9.642;2022-10-04T00:14:00;8.77;;;6.27;;
11086;SDS011;5597;47.588;9.642;2022-10-04T00:16:32;6.23;;;5.47;;
11086;SDS011;5597;47.588;9.642;2022-10-04T00:19:02;8.07;;;5.90;;
11086;SDS011;5597;47.588;9.642;2022-10-04T00:24:32;6.87;;;5.07;;
11086;SDS011;5597;47.588;9.642;2022-10-04T00:29:43;6.97;;;5.57;;
11086;SDS011;5597;47.588;9.642;2022-10-04T00:34:49;6.07;;;5.10;;
11086;SDS011;5597;47.588;9.642;2022-10-04T00:37:17;6.97;;;5.33;;
11086;SDS011;5597;47.588;9.642;2022-10-04T00:39:54;7.10;;;5.40;;
11086;SDS011;5597;47.588;9.642;2022-10-04T00:42:35;7.27;;;5.70;;
11086;SDS011;5597;47.588;9.642;2022-10-04T00:50:17;11.57;;;6.30;;
11086;SDS011;5597;47.588;9.642;2022-10-04T00:52:53;7.10;;;5.60;;
11086;SDS011;5597;47.588;9.642;2022-10-04T00:55:28;8.87;;;6.03;;
11086;SDS011;5597;47.588;9.642;2022-10-04T00:58:04;6.80;;;5.73;;
11086;SDS011;5597;47.588;9.642;2022-10-04T01:00:37;7.30;;;5.70;;
11086;SDS011;5597;47.588;9.642;2022-10-04T01:03:05;7.30;;;5.87;;
11086;SDS011;5597;47.588;9.642;2022-10-04T01:05:37;6.83;;;5.50;;
11086;SDS011;5597;47.588;9.642;2022-10-04T01:08:07;6.67;;;5.90;;
11086;SDS011;5597;47.588;9.642;2022-10-04T01:13:27;8.63;;;5.80;;
11086;SDS011;5597;47.588;9.642;2022-10-04T01:18:30;8.07;;;6.03;;
11086;SDS011;5597;47.588;9.642;2022-10-04T01:23:44;9.60;;;6.67;;
11086;SDS011;5597;47.588;9.642;2022-10-04T01:31:29;6.63;;;5.83;;
11086;SDS011;5597;47.588;9.642;2022-10-04T01:33:56;6.47;;;5.70;;
11086;SDS011;5597;47.588;9.642;2022-10-04T01:36:24;6.90;;;5.80;;
11086;SDS011;5597;47.588;9.642;2022-10-04T01:38:51;6.93;;;5.80;;
11086;SDS011;5597;47.588;9.642;2022-10-04T01:41:19;7.27;;;6.37;;
11086;SDS011;5597;47.588;9.642;2022-10-04T01:43:50;9.07;;;6.10;;
11086;SDS011;5597;47.588;9.642;2022-10-04T01:46:23;6.33;;;5.47;;
11086;SDS011;5597;47.588;9.642;2022-10-04T01:48:53;6.93;;;5.97;;
11086;SDS011;5597;47.588;9.642;2022-10-04T01:51:22;7.43;;;6.00;;
11086;SDS011;5597;47.588;9.642;2022-10-04T01:53:55;7.30;;;6.60;;
11086;SDS011;5597;47.588;9.642;2022-10-04T01:56:30;6.30;;;5.23;;
11086;SDS011;5597;47.588;9.642;2022-10-04T01:59:02;5.90;;;5.30;;
11086;SDS011;5597;47.588;9.642;2022-10-04T02:01:32;8.90;;;6.37;;
11086;SDS011;5597;47.588;9.642;2022-10-04T02:04:18;7.20;;;6.10;;
11086;SDS011;5597;47.588;9.642;2022-10-04T02:06:47;6.73;;;5.70;;
11086;SDS011;5597;47.588;9.642;2022-10-04T02:09:18;5.80;;;5.20;;
11086;SDS011;5597;47.588;9.642;2022-10-04T02:11:48;5.83;;;5.23;;
11086;SDS011;5597;47.588;9.642;2022-10-04T02:14:18;5.63;;;4.90;;
11086;SDS011;5597;47.588;9.642;2022-10-04T02:16:50;5.80;;;5.03;;
11086;SDS011;5597;47.588;9.642;2022-10-04T02:19:18;8.17;;;5.30;;
11086;SDS011;5597;47.588;9.642;2022-10-04T02:21:49;6.17;;;5.33;;
11086;SDS011;5597;47.588;9.642;2022-10-04T02:24:16;6.00;;;5.30;;
11086;SDS011;5597;47.588;9.642;2022-10-04T02:26:47;8.03;;;5.50;;
11086;SDS011;5597;47.588;9.642;2022-10-04T02:29:22;5.87;;;4.90;;
11086;SDS011;5597;47.588;9.642;2022-10-04T02:31:47;5.40;;;4.90;;
11086;SDS011;5597;47.588;9.642;2022-10-04T02:34:54;5.73;;;4.73;;
11086;SDS011;5597;47.588;9.642;2022-10-04T02:37:21;6.93;;;5.50;;
11086;SDS011;5597;47.588;9.642;2022-10-04T02:39:50;5.53;;;4.87;;
11086;SDS011;5597;47.588;9.642;2022-10-04T02:47:59;5.57;;;5.07;;
11086;SDS011;5597;47.588;9.642;2022-10-04T02:50:35;6.13;;;5.40;;
11086;SDS011;5597;47.588;9.642;2022-10-04T02:54:20;7.57;;;5.53;;
11086;SDS011;5597;47.588;9.642;2022-10-04T02:56:14;7.53;;;5.20;;
11086;SDS011;5597;47.588;9.642;2022-10-04T02:58:41;6.53;;;5.30;;
11086;SDS011;5597;47.588;9.642;2022-10-04T03:01:13;5.87;;;5.27;;
11086;SDS011;5597;47.588;9.642;2022-10-04T03:03:47;7.47;;;5.73;;
11086;SDS011;5597;47.588;9.642;2022-10-04T03:06:14;6.53;;;5.50;;
11086;SDS011;5597;47.588;9.642;2022-10-04T03:11:16;6.50;;;5.60;;
11086;SDS011;5597;47.588;9.642;2022-10-04T03:13:48;6.07;;;4.80;;
11086;SDS011;5597;47.588;9.642;2022-10-04T03:16:15;7.40;;;5.27;;
11086;SDS011;5597;47.588;9.642;2022-10-04T03:18:42;5.83;;;5.23;;
11086;SDS011;5597;47.588;9.642;2022-10-04T03:21:10;6.73;;;5.40;;
11086;SDS011;5597;47.588;9.642;2022-10-04T03:23:40;6.70;;;5.10;;
11086;SDS011;5597;47.588;9.642;2022-10-04T03:26:16;5.90;;;5.30;;
11086;SDS011;5597;47.588;9.642;2022-10-04T03:28:55;7.30;;;5.40;;
11086;SDS011;5597;47.588;9.642;2022-10-04T03:31:22;6.83;;;5.90;;
11086;SDS011;5597;47.588;9.642;2022-10-04T03:33:50;8.77;;;6.10;;
11086;SDS011;5597;47.588;9.642;2022-10-04T03:36:19;7.73;;;6.20;;
11086;SDS011;5597;47.588;9.642;2022-10-04T03:38:47;7.07;;;6.17;;
11086;SDS011;5597;47.588;9.642;2022-10-04T03:41:16;7.50;;;5.90;;
11086;SDS011;5597;47.588;9.642;2022-10-04T03:43:45;6.10;;;5.50;;
11086;SDS011;5597;47.588;9.642;2022-10-04T03:46:14;6.23;;;5.60;;
11086;SDS011;5597;47.588;9.642;2022-10-04T03:48:43;5.93;;;5.27;;
11086;SDS011;5597;47.588;9.642;2022-10-04T03:51:24;5.50;;;5.00;;
11086;SDS011;5597;47.588;9.642;2022-10-04T03:53:51;6.20;;;5.60;;
11086;SDS011;5597;47.588;9.642;2022-10-04T03:56:32;6.20;;;5.60;;
11086;SDS011;5597;47.588;9.642;2022-10-04T03:59:01;7.27;;;5.50;;
11086;SDS011;5597;47.588;9.642;2022-10-04T04:01:38;6.03;;;5.00;;
11086;SDS011;5597;47.588;9.642;2022-10-04T04:04:17;6.60;;;5.90;;
11086;SDS011;5597;47.588;9.642;2022-10-04T04:06:49;6.33;;;5.70;;
11086;SDS011;5597;47.588;9.642;2022-10-04T04:09:24;8.50;;;6.73;;
11086;SDS011;5597;47.588;9.642;2022-10-04T04:11:59;10.93;;;6.97;;
11086;SDS011;5597;47.588;9.642;2022-10-04T04:14:27;6.83;;;6.13;;
11086;SDS011;5597;47.588;9.642;2022-10-04T04:16:53;6.17;;;5.53;;
11086;SDS011;5597;47.588;9.642;2022-10-04T04:19:40;6.10;;;5.47;;
11086;SDS011;5597;47.588;9.642;2022-10-04T04:22:08;5.90;;;5.30;;
11086;SDS011;5597;47.588;9.642;2022-10-04T04:24:39;5.70;;;5.20;;
11086;SDS011;5597;47.588;9.642;2022-10-04T04:27:07;6.00;;;5.40;;
11086;SDS011;5597;47.588;9.642;2022-10-04T04:29:45;6.10;;;5.50;;
11086;SDS011;5597;47.588;9.642;2022-10-04T04:32:19;6.03;;;5.40;;
11086;SDS011;5597;47.588;9.642;2022-10-04T04:34:52;6.73;;;5.43;;
11086;SDS011;5597;47.588;9.642;2022-10-04T04:37:22;5.90;;;5.30;;
11086;SDS011;5597;47.588;9.642;2022-10-04T04:39:49;5.67;;;5.03;;
11086;SDS011;5597;47.588;9.642;2022-10-04T04:42:24;5.60;;;4.90;;
11086;SDS011;5597;47.588;9.642;2022-10-04T04:44:55;6.63;;;5.93;;
11086;SDS011;5597;47.588;9.642;2022-10-04T04:50:06;6.23;;;5.63;;
11086;SDS011;5597;47.588;9.642;2022-10-04T04:52:42;8.37;;;6.67;;
11086;SDS011;5597;47.588;9.642;2022-10-04T04:55:15;7.57;;;6.53;;
11086;SDS011;5597;47.588;9.642;2022-10-04T04:57:47;7.97;;;6.27;;
11086;SDS011;5597;47.588;9.642;2022-10-04T05:00:16;7.47;;;6.53;;
11086;SDS011;5597;47.588;9.642;2022-10-04T05:02:50;9.00;;;7.23;;
11086;SDS011;5597;47.588;9.642;2022-10-04T05:07:47;10.40;;;8.20;;
11086;SDS011;5597;47.588;9.642;2022-10-04T05:10:20;8.70;;;7.13;;
11086;SDS011;5597;47.588;9.642;2022-10-04T05:12:47;9.57;;;7.17;;
11086;SDS011;5597;47.588;9.642;2022-10-04T05:15:13;7.90;;;6.70;;
11086;SDS011;5597;47.588;9.642;2022-10-04T05:17:39;7.87;;;7.00;;
11086;SDS011;5597;47.588;9.642;2022-10-04T05:20:04;9.33;;;7.17;;
11086;SDS011;5597;47.588;9.642;2022-10-04T05:22:30;9.37;;;7.30;;
11086;SDS011;5597;47.588;9.642;2022-10-04T05:24:58;11.33;;;7.50;;
11086;SDS011;5597;47.588;9.642;2022-10-04T05:33:08;10.10;;;7.60;;
11086;SDS011;5597;47.588;9.642;2022-10-04T05:38:38;10.63;;;8.20;;
11086;SDS011;5597;47.588;9.642;2022-10-04T05:41:19;14.70;;;9.27;;
11086;SDS011;5597;47.588;9.642;2022-10-04T05:43:55;11.40;;;8.43;;
11086;SDS011;5597;47.588;9.642;2022-10-04T05:48:57;14.10;;;9.77;;
11086;SDS011;5597;47.588;9.642;2022-10-04T05:52:25;15.40;;;10.43;;
11086;SDS011;5597;47.588;9.642;2022-10-04T06:09:15;14.17;;;10.67;;
11086;SDS011;5597;47.588;9.642;2022-10-04T06:11:55;15.13;;;10.60;;
11086;SDS011;5597;47.588;9.642;2022-10-04T06:22:44;16.33;;;11.37;;
11086;SDS011;5597;47.588;9.642;2022-10-04T06:28:12;13.63;;;10.20;;
11086;SDS011;5597;47.588;9.642;2022-10-04T06:34:11;10.73;;;9.03;;
11086;SDS011;5597;47.588;9.642;2022-10-04T06:37:19;13.07;;;8.70;;
11086;SDS011;5597;47.588;9.642;2022-10-04T06:45:43;11.10;;;8.17;;
11086;SDS011;5597;47.588;9.642;2022-10-04T06:51:38;10.70;;;8.07;;
11086;SDS011;5597;47.588;9.642;2022-10-04T06:54:12;8.60;;;7.37;;
11086;SDS011;5597;47.588;9.642;2022-10-04T06:59:56;7.93;;;6.90;;
11086;SDS011;5597;47.588;9.642;2022-10-04T07:02:32;7.80;;;6.80;;
11086;SDS011;5597;47.588;9.642;2022-10-04T07:05:01;7.50;;;6.03;;
11086;SDS011;5597;47.588;9.642;2022-10-04T07:07:41;7.97;;;6.40;;
11086;SDS011;5597;47.588;9.642;2022-10-04T07:15:49;6.50;;;5.90;;
11086;SDS011;5597;47.588;9.642;2022-10-04T07:18:54;5.80;;;5.20;;
11086;SDS011;5597;47.588;9.642;2022-10-04T07:21:34;5.37;;;4.87;;
11086;SDS011;5597;47.588;9.642;2022-10-04T07:24:08;5.80;;;5.20;;
11086;SDS011;5597;47.588;9.642;2022-10-04T07:26:45;5.97;;;5.07;;
11086;SDS011;5597;47.588;9.642;2022-10-04T07:29:24;5.40;;;4.90;;
11086;SDS011;5597;47.588;9.642;2022-10-04T07:35:15;5.83;;;5.10;;
11086;SDS011;5597;47.588;9.642;2022-10-04T07:37:21;5.90;;;5.03;;
11086;SDS011;5597;47.588;9.642;2022-10-04T07:39:54;5.33;;;4.80;;
11086;SDS011;5597;47.588;9.642;2022-10-04T07:45:13;5.13;;;4.63;;
11086;SDS011;5597;47.588;9.642;2022-10-04T07:47:47;5.73;;;5.13;;
11086;SDS011;5597;47.588;9.642;2022-10-04T07:50:23;6.00;;;5.40;;
11086;SDS011;5597;47.588;9.642;2022-10-04T08:01:33;6.67;;;5.23;;
11086;SDS011;5597;47.588;9.642;2022-10-04T08:04:24;5.00;;;4.60;;
11086;SDS011;5597;47.588;9.642;2022-10-04T08:07:16;5.03;;;4.60;;
11086;SDS011;5597;47.588;9.642;2022-10-04T08:10:07;6.20;;;4.73;;
11086;SDS011;5597;47.588;9.642;2022-10-04T08:12:56;5.97;;;5.37;;
11086;SDS011;5597;47.588;9.642;2022-10-04T08:15:42;5.90;;;5.30;;
11086;SDS011;5597;47.588;9.642;2022-10-04T08:18:16;5.80;;;5.20;;
11086;SDS011;5597;47.588;9.642;2022-10-04T08:29:13;5.07;;;4.57;;
11086;SDS011;5597;47.588;9.642;2022-10-04T08:40:48;5.87;;;4.80;;
11086;SDS011;5597;47.588;9.642;2022-10-04T09:08:02;4.87;;;4.37;;
11086;SDS011;5597;47.588;9.642;2022-10-04T09:16:07;4.63;;;4.20;;
11086;SDS011;5597;47.588;9.642;2022-10-04T09:24:05;4.67;;;4.27;;
11086;SDS011;5597;47.588;9.642;2022-10-04T09:29:40;4.93;;;4.40;;
11086;SDS011;5597;47.588;9.642;2022-10-04T09:35:42;4.30;;;3.90;;
11086;SDS011;5597;47.588;9.642;2022-10-04T09:40:59;4.60;;;4.13;;
11086;SDS011;5597;47.588;9.642;2022-10-04T09:54:59;4.80;;;4.30;;
11086;SDS011;5597;47.588;9.642;2022-10-04T10:09:46;5.93;;;5.33;;
11086;SDS011;5597;47.588;9.642;2022-10-04T10:12:57;7.17;;;5.77;;
11086;SDS011;5597;47.588;9.642;2022-10-04T10:29:26;5.63;;;5.07;;
11086;SDS011;5597;47.588;9.642;2022-10-04T10:57:45;5.27;;;4.13;;
11086;SDS011;5597;47.588;9.642;2022-10-04T11:30:28;5.00;;;4.50;;
11086;SDS011;5597;47.588;9.642;2022-10-04T11:33:22;4.83;;;4.43;;
11086;SDS011;5597;47.588;9.642;2022-10-04T11:38:47;4.63;;;4.23;;
11086;SDS011;5597;47.588;9.642;2022-10-04T11:42:00;5.20;;;4.70;;
11086;SDS011;5597;47.588;9.642;2022-10-04T11:50:23;5.43;;;4.90;;
11086;SDS011;5597;47.588;9.642;2022-10-04T12:12:10;5.47;;;4.70;;
11086;SDS011;5597;47.588;9.642;2022-10-04T12:15:17;4.97;;;4.47;;
11086;SDS011;5597;47.588;9.642;2022-10-04T12:27:08;5.57;;;4.97;;
11086;SDS011;5597;47.588;9.642;2022-10-04T12:33:09;5.03;;;4.53;;
11086;SDS011;5597;47.588;9.642;2022-10-04T12:46:30;6.20;;;5.33;;
11086;SDS011;5597;47.588;9.642;2022-10-04T12:52:25;5.20;;;4.63;;
11086;SDS011;5597;47.588;9.642;2022-10-04T12:55:01;5.30;;;4.80;;
11086;SDS011;5597;47.588;9.642;2022-10-04T12:57:48;6.23;;;4.47;;
11086;SDS011;5597;47.588;9.642;2022-10-04T13:00:31;6.67;;;4.87;;
11086;SDS011;5597;47.588;9.642;2022-10-04T13:16:10;5.83;;;4.90;;
11086;SDS011;5597;47.588;9.642;2022-10-04T13:27:17;4.37;;;3.97;;
11086;SDS011;5597;47.588;9.642;2022-10-04T13:29:56;5.60;;;5.07;;
11086;SDS011;5597;47.588;9.642;2022-10-04T13:32:33;5.10;;;4.60;;
11086;SDS011;5597;47.588;9.642;2022-10-04T13:38:12;4.90;;;4.40;;
11086;SDS011;5597;47.588;9.642;2022-10-04T13:48:48;5.33;;;4.90;;
11086;SDS011;5597;47.588;9.642;2022-10-04T14:05:02;4.30;;;4.00;;
11086;SDS011;5597;47.588;9.642;2022-10-04T14:24:55;5.77;;;5.27;;
11086;SDS011;5597;47.588;9.642;2022-10-04T14:47:57;4.63;;;4.13;;
11086;SDS011;5597;47.588;9.642;2022-10-04T14:50:19;4.87;;;4.33;;
11086;SDS011;5597;47.588;9.642;2022-10-04T14:58:16;4.47;;;4.13;;
11086;SDS011;5597;47.588;9.642;2022-10-04T15:06:27;4.80;;;3.87;;
11086;SDS011;5597;47.588;9.642;2022-10-04T15:12:25;3.83;;;3.40;;
11086;SDS011;5597;47.588;9.642;2022-10-04T15:15:05;3.87;;;3.37;;
11086;SDS011;5597;47.588;9.642;2022-10-04T15:20:27;4.30;;;3.90;;
11086;SDS011;5597;47.588;9.642;2022-10-04T15:23:28;4.30;;;3.40;;
11086;SDS011;5597;47.588;9.642;2022-10-04T15:28:51;4.60;;;4.20;;
11086;SDS011;5597;47.588;9.642;2022-10-04T15:31:42;4.30;;;3.90;;
11086;SDS011;5597;47.588;9.642;2022-10-04T15:37:09;3.47;;;2.80;;
11086;SDS011;5597;47.588;9.642;2022-10-04T15:39:41;3.50;;;3.20;;
11086;SDS011;5597;47.588;9.642;2022-10-04T15:42:20;5.00;;;3.70;;
11086;SDS011;5597;47.588;9.642;2022-10-04T15:47:55;3.90;;;3.27;;
11086;SDS011;5597;47.588;9.642;2022-10-04T15:50:30;3.07;;;2.80;;
11086;SDS011;5597;47.588;9.642;2022-10-04T15:53:25;3.70;;;3.40;;
11086;SDS011;5597;47.588;9.642;2022-10-04T15:56:00;2.93;;;2.70;;
11086;SDS011;5597;47.588;9.642;2022-10-04T16:07:07;3.10;;;2.80;;
11086;SDS011;5597;47.588;9.642;2022-10-04T16:12:19;2.83;;;2.63;;
11086;SDS011;5597;47.588;9.642;2022-10-04T16:15:10;3.07;;;2.77;;
11086;SDS011;5597;47.588;9.642;2022-10-04T16:23:28;3.40;;;3.10;;
11086;SDS011;5597;47.588;9.642;2022-10-04T16:26:00;3.20;;;2.90;;
11086;SDS011;5597;47.588;9.642;2022-10-04T16:47:51;3.17;;;2.87;;
11086;SDS011;5597;47.588;9.642;2022-10-04T16:56:12;3.57;;;3.20;;
11086;SDS011;5597;47.588;9.642;2022-10-04T16:58:50;3.40;;;3.10;;
11086;SDS011;5597;47.588;9.642;2022-10-04T17:04:51;3.60;;;3.20;;
11086;SDS011;5597;47.588;9.642;2022-10-04T17:06:58;5.47;;;3.63;;
11086;SDS011;5597;47.588;9.642;2022-10-04T17:20:26;7.07;;;6.17;;
11086;SDS011;5597;47.588;9.642;2022-10-04T17:31:25;6.50;;;5.90;;
11086;SDS011;5597;47.588;9.642;2022-10-04T17:34:20;6.20;;;5.60;;
11086;SDS011;5597;47.588;9.642;2022-10-04T17:40:18;5.30;;;4.80;;
11086;SDS011;5597;47.588;9.642;2022-10-04T17:43:09;5.30;;;4.80;;
11086;SDS011;5597;47.588;9.642;2022-10-04T17:45:42;4.70;;;4.30;;
11086;SDS011;5597;47.588;9.642;2022-10-04T17:48:21;5.00;;;4.60;;
11086;SDS011;5597;47.588;9.642;2022-10-04T17:54:38;4.97;;;4.10;;
11086;SDS011;5597;47.588;9.642;2022-10-04T17:57:37;4.77;;;4.37;;
11086;SDS011;5597;47.588;9.642;2022-10-04T18:00:13;6.53;;;5.40;;
11086;SDS011;5597;47.588;9.642;2022-10-04T18:08:00;5.50;;;5.00;;
11086;SDS011;5597;47.588;9.642;2022-10-04T18:10:48;6.63;;;5.93;;
11086;SDS011;5597;47.588;9.642;2022-10-04T18:13:20;7.00;;;6.30;;
11086;SDS011;5597;47.588;9.642;2022-10-04T18:18:43;6.90;;;6.30;;
11086;SDS011;5597;47.588;9.642;2022-10-04T18:23:59;6.03;;;5.43;;
11086;SDS011;5597;47.588;9.642;2022-10-04T18:27:01;5.67;;;5.17;;
11086;SDS011;5597;47.588;9.642;2022-10-04T18:29:39;8.47;;;6.07;;
11086;SDS011;5597;47.588;9.642;2022-10-04T18:32:14;6.83;;;6.13;;
11086;SDS011;5597;47.588;9.642;2022-10-04T18:34:56;6.87;;;6.10;;
11086;SDS011;5597;47.588;9.642;2022-10-04T18:37:46;6.23;;;5.63;;
11086;SDS011;5597;47.588;9.642;2022-10-04T18:42:56;6.60;;;5.87;;
11086;SDS011;5597;47.588;9.642;2022-10-04T18:45:30;7.47;;;6.57;;
11086;SDS011;5597;47.588;9.642;2022-10-04T18:47:58;7.10;;;6.40;;
11086;SDS011;5597;47.588;9.642;2022-10-04T18:50:35;6.93;;;6.10;;
11086;SDS011;5597;47.588;9.642;2022-10-04T18:55:40;7.63;;;6.17;;
11086;SDS011;5597;47.588;9.642;2022-10-04T19:01:26;6.27;;;5.67;;
11086;SDS011;5597;47.588;9.642;2022-10-04T19:04:23;6.93;;;6.00;;
11086;SDS011;5597;47.588;9.642;2022-10-04T19:07:10;5.50;;;4.93;;
11086;SDS011;5597;47.588;9.642;2022-10-04T19:12:24;7.20;;;6.50;;
11086;SDS011;5597;47.588;9.642;2022-10-04T19:15:00;7.63;;;6.83;;
11086;SDS011;5597;47.588;9.642;2022-10-04T19:20:44;7.23;;;6.10;;
11086;SDS011;5597;47.588;9.642;2022-10-04T19:23:31;7.97;;;6.93;;
11086;SDS011;5597;47.588;9.642;2022-10-04T19:26:11;6.43;;;5.83;;
11086;SDS011;5597;47.588;9.642;2022-10-04T19:28:44;6.53;;;5.90;;
11086;SDS011;5597;47.588;9.642;2022-10-04T19:31:22;6.50;;;5.67;;
11086;SDS011;5597;47.588;9.642;2022-10-04T19:34:07;6.20;;;5.60;;
11086;SDS011;5597;47.588;9.642;2022-10-04T19:47:57;6.47;;;5.77;;
11086;SDS011;5597;47.588;9.642;2022-10-04T19:50:36;6.47;;;5.87;;
11086;SDS011;5597;47.588;9.642;2022-10-04T19:53:06;7.10;;;5.60;;
11086;SDS011;5597;47.588;9.642;2022-10-04T20:03:37;8.10;;;6.97;;
11086;SDS011;5597;47.588;9.642;2022-10-04T20:06:03;7.87;;;7.07;;
11086;SDS011;5597;47.588;9.642;2022-10-04T20:11:28;10.37;;;9.23;;
11086;SDS011;5597;47.588;9.642;2022-10-04T20:27:06;8.63;;;7.73;;
11086;SDS011;5597;47.588;9.642;2022-10-04T20:34:51;8.60;;;7.70;;
11086;SDS011;5597;47.588;9.642;2022-10-04T20:37:18;8.50;;;7.50;;
11086;SDS011;5597;47.588;9.642;2022-10-04T20:42:12;8.53;;;7.63;;
11086;SDS011;5597;47.588;9.642;2022-10-04T20:52:54;8.43;;;7.37;;
11086;SDS011;5597;47.588;9.642;2022-10-04T20:55:35;8.07;;;7.27;;
11086;SDS011;5597;47.588;9.642;2022-10-04T20:58:04;8.60;;;7.70;;
11086;SDS011;5597;47.588;9.642;2022-10-04T21:00:51;8.27;;;6.70;;
11086;SDS011;5597;47.588;9.642;2022-10-04T21:03:18;8.70;;;7.30;;
11086;SDS011;5597;47.588;9.642;2022-10-04T21:05:57;9.07;;;8.17;;
11086;SDS011;5597;47.588;9.642;2022-10-04T21:08:27;7.60;;;6.90;;
11086;SDS011;5597;47.588;9.642;2022-10-04T21:11:03;7.70;;;6.90;;
11086;SDS011;5597;47.588;9.642;2022-10-04T21:19:47;6.73;;;6.07;;
11086;SDS011;5597;47.588;9.642;2022-10-04T21:22:06;7.10;;;6.23;;
11086;SDS011;5597;47.588;9.642;2022-10-04T21:24:33;7.90;;;6.90;;
11086;SDS011;5597;47.588;9.642;2022-10-04T21:27:05;7.40;;;6.70;;
11086;SDS011;5597;47.588;9.642;2022-10-04T21:29:33;7.23;;;6.53;;
11086;SDS011;5597;47.588;9.642;2022-10-04T21:31:59;7.50;;;6.70;;
11086;SDS011;5597;47.588;9.642;2022-10-04T21:34:25;7.63;;;6.93;;
11086;SDS011;5597;47.588;9.642;2022-10-04T21:36:50;7.80;;;7.00;;
11086;SDS011;5597;47.588;9.642;2022-10-04T21:39:16;7.33;;;6.63;;
11086;SDS011;5597;47.588;9.642;2022-10-04T21:41:42;7.40;;;6.70;;
11086;SDS011;5597;47.588;9.642;2022-10-04T21:44:08;6.30;;;5.70;;
11086;SDS011;5597;47.588;9.642;2022-10-04T21:46:34;6.77;;;6.07;;
11086;SDS011;5597;47.588;9.642;2022-10-04T21:49:00;6.40;;;5.73;;
11086;SDS011;5597;47.588;9.642;2022-10-04T21:51:27;6.77;;;6.07;;
11086;SDS011;5597;47.588;9.642;2022-10-04T21:53:55;6.67;;;6.00;;
11086;SDS011;5597;47.588;9.642;2022-10-04T21:56:21;6.80;;;6.17;;
11086;SDS011;5597;47.588;9.642;2022-10-04T21:58:46;5.77;;;5.27;;
11086;SDS011;5597;47.588;9.642;2022-10-04T22:01:12;6.63;;;5.93;;
11086;SDS011;5597;47.588;9.642;2022-10-04T22:03:37;7.80;;;6.87;;
11086;SDS011;5597;47.588;9.642;2022-10-04T22:06:03;6.43;;;5.83;;
11086;SDS011;5597;47.588;9.642;2022-10-04T22:08:28;6.73;;;6.10;;
11086;SDS011;5597;47.588;9.642;2022-10-04T22:10:54;6.30;;;5.70;;
11086;SDS011;5597;47.588;9.642;2022-10-04T22:13:19;6.57;;;5.63;;
11086;SDS011;5597;47.588;9.642;2022-10-04T22:15:45;7.03;;;6.03;;
11086;SDS011;5597;47.588;9.642;2022-10-04T22:18:11;6.10;;;5.50;;
11086;SDS011;5597;47.588;9.642;2022-10-04T22:20:36;6.30;;;5.70;;
11086;SDS011;5597;47.588;9.642;2022-10-04T22:23:02;7.73;;;6.23;;
11086;SDS011;5597;47.588;9.642;2022-10-04T22:25:34;8.33;;;7.20;;
11086;SDS011;5597;47.588;9.642;2022-10-04T22:27:59;6.23;;;5.63;;
11086;SDS011;5597;47.588;9.642;2022-10-04T22:30:26;6.67;;;5.93;;
11086;SDS011;5597;47.588;9.642;2022-10-04T22:32:54;6.60;;;6.00;;
11086;SDS011;5597;47.588;9.642;2022-10-04T22:35:27;6.73;;;6.03;;
11086;SDS011;5597;47.588;9.642;2022-10-04T22:37:54;6.60;;;6.00;;
11086;SDS011;5597;47.588;9.642;2022-10-04T22:40:21;7.67;;;6.43;;
11086;SDS011;5597;47.588;9.642;2022-10-04T22:42:51;6.70;;;6.10;;
11086;SDS011;5597;47.588;9.642;2022-10-04T22:45:22;6.57;;;5.87;;
11086;SDS011;5597;47.588;9.642;2022-10-04T22:47:49;6.37;;;5.77;;
11086;SDS011;5597;47.588;9.642;2022-10-04T22:52:59;6.10;;;5.50;;
11086;SDS011;5597;47.588;9.642;2022-10-04T22:55:38;6.00;;;5.40;;
11086;SDS011;5597;47.588;9.642;2022-10-04T22:58:05;6.73;;;6.13;;
11086;SDS011;5597;47.588;9.642;2022-10-04T23:00:33;6.57;;;5.53;;
11086;SDS011;5597;47.588;9.642;2022-10-04T23:02:59;6.03;;;5.43;;
11086;SDS011;5597;47.588;9.642;2022-10-04T23:05:25;7.07;;;5.70;;
11086;SDS011;5597;47.588;9.642;2022-10-04T23:07:51;5.70;;;5.20;;
11086;SDS011;5597;47.588;9.642;2022-10-04T23:10:17;6.17;;;5.57;;
11086;SDS011;5597;47.588;9.642;2022-10-04T23:12:47;5.67;;;5.10;;
11086;SDS011;5597;47.588;9.642;2022-10-04T23:15:16;5.60;;;5.10;;
11086;SDS011;5597;47.588;9.642;2022-10-04T23:17:43;5.97;;;5.30;;
11086;SDS011;5597;47.588;9.642;2022-10-04T23:20:12;5.70;;;5.20;;
11086;SDS011;5597;47.588;9.642;2022-10-04T23:22:43;7.43;;;6.30;;
11086;SDS011;5597;47.588;9.642;2022-10-04T23:25:14;6.47;;;5.87;;
11086;SDS011;5597;47.588;9.642;2022-10-04T23:27:45;6.20;;;5.60;;
11086;SDS011;5597;47.588;9.642;2022-10-04T23:30:12;5.70;;;5.13;;
11086;SDS011;5597;47.588;9.642;2022-10-04T23:32:46;5.50;;;5.00;;
11086;SDS011;5597;47.588;9.642;2022-10-04T23:35:16;5.50;;;4.83;;
11086;SDS011;5597;47.588;9.642;2022-10-04T23:37:47;5.50;;;4.83;;
11086;SDS011;5597;47.588;9.642;2022-10-04T23:40:14;5.90;;;5.17;;
11086;SDS011;5597;47.588;9.642;2022-10-04T23:42:42;5.47;;;4.97;;
11086;SDS011;5597;47.588;9.642;2022-10-04T23:45:15;4.90;;;4.33;;
11086;SDS011;5597;47.588;9.642;2022-10-04T23:47:49;5.53;;;5.03;;
11086;SDS011;5597;47.588;9.642;2022-10-04T23:50:18;5.97;;;5.37;;
11086;SDS011;5597;47.588;9.642;2022-10-04T23:52:51;5.40;;;4.90;;
11086;SDS011;5597;47.588;9.642;2022-10-04T23:55:20;5.10;;;4.60;;
11086;SDS011;5597;47.588;9.642;2022-10-04T23:57:48;5.00;;;4.50;;
